Time;durP1;ratioP1;P1;durP2;ratioP2;P2;SDS_P1;SDS_P2;PMS_P1;PMS_P2;Temp;Humidity;BMP_temperature;BMP_pressure;BME280_temperature;BME280_humidity;BME280_pressure;Samples;Min_cycle;Max_cycle;Signal;HPM_P1;HPM_P2
2021/03/29 00:01:36;;;;;;;6.20;3.90;;;7.70;99.90;;;;;;4973146;28;20042;-72
2021/03/29 00:04:01;;;;;;;9.35;3.92;;;7.70;99.90;;;;;;4972825;28;20022;-72
2021/03/29 00:06:28;;;;;;;9.13;3.90;;;7.70;99.90;;;;;;4973098;28;20034;-72
2021/03/29 00:08:55;;;;;;;8.07;3.80;;;7.70;99.90;;;;;;4972995;28;20031;-73
2021/03/29 00:11:23;;;;;;;8.85;3.78;;;7.70;99.90;;;;;;4972952;28;20027;-73
2021/03/29 00:13:50;;;;;;;8.55;3.78;;;7.70;99.90;;;;;;4969865;28;20508;-74
2021/03/29 00:16:18;;;;;;;9.25;3.90;;;7.80;99.90;;;;;;4962355;28;20548;-72
2021/03/29 00:18:44;;;;;;;9.80;4.10;;;7.80;99.90;;;;;;4973066;28;20035;-73
2021/03/29 00:21:10;;;;;;;8.70;3.90;;;7.80;99.90;;;;;;4971905;28;20440;-73
2021/03/29 00:23:36;;;;;;;7.28;3.83;;;7.90;99.90;;;;;;4972777;28;20023;-74
2021/03/29 00:26:05;;;;;;;5.88;3.60;;;7.90;99.90;;;;;;4963167;28;20040;-73
2021/03/29 00:28:30;;;;;;;6.35;3.45;;;7.90;99.90;;;;;;4970275;28;20393;-73
2021/03/29 00:30:56;;;;;;;7.25;3.65;;;7.90;99.90;;;;;;4963087;28;20034;-73
2021/03/29 00:33:23;;;;;;;5.95;3.83;;;7.90;99.90;;;;;;4969859;28;20030;-72
2021/03/29 00:35:50;;;;;;;11.98;4.05;;;7.80;99.90;;;;;;4972728;28;20027;-73
2021/03/29 00:38:17;;;;;;;7.72;3.40;;;7.80;99.90;;;;;;4972849;28;20025;-73
2021/03/29 00:40:51;;;;;;;8.77;3.70;;;7.70;99.90;;;;;;4972945;28;20355;-73
2021/03/29 00:43:24;;;;;;;5.93;3.10;;;7.80;99.90;;;;;;4972794;28;20544;-73
2021/03/29 00:45:52;;;;;;;5.72;3.22;;;7.70;99.90;;;;;;4972817;28;20038;-73
2021/03/29 00:48:19;;;;;;;10.75;4.10;;;7.70;99.90;;;;;;4971512;28;20031;-73
2021/03/29 00:50:52;;;;;;;6.70;4.35;;;7.70;99.90;;;;;;4972778;28;20034;-73
2021/03/29 00:53:18;;;;;;;11.82;3.88;;;7.70;99.90;;;;;;4971846;28;20027;-73
2021/03/29 00:55:47;;;;;;;9.35;4.00;;;7.70;99.90;;;;;;4973037;28;20030;-74
2021/03/29 00:58:14;;;;;;;7.95;3.20;;;7.70;99.90;;;;;;4972815;28;20028;-72
2021/03/29 01:00:50;;;;;;;8.13;3.60;;;7.70;99.90;;;;;;4972681;28;20493;-73
2021/03/29 01:03:25;;;;;;;6.40;3.47;;;7.60;99.90;;;;;;4970019;28;20023;-73
2021/03/29 01:06:07;;;;;;;6.82;3.80;;;7.50;99.90;;;;;;4972695;28;20042;-73
2021/03/29 01:08:35;;;;;;;7.75;3.70;;;7.40;99.90;;;;;;4976458;28;20026;-72
2021/03/29 01:11:04;;;;;;;8.05;3.45;;;7.50;99.90;;;;;;4976348;28;20038;-73
2021/03/29 01:13:32;;;;;;;4.97;3.40;;;7.40;99.90;;;;;;4976174;28;20485;-75
2021/03/29 01:15:59;;;;;;;9.27;3.90;;;7.40;99.90;;;;;;4969144;28;20511;-74
2021/03/29 01:18:27;;;;;;;9.02;3.90;;;7.30;99.90;;;;;;4970627;28;20094;-74
2021/03/29 01:21:17;;;;;;;7.43;3.38;;;7.30;99.90;;;;;;4975053;28;20556;-74
2021/03/29 01:23:43;;;;;;;5.95;3.75;;;7.20;99.90;;;;;;4975995;28;20027;-75
2021/03/29 01:26:30;;;;;;;7.50;3.70;;;7.20;99.90;;;;;;4965249;28;20501;-74
2021/03/29 01:28:56;;;;;;;8.07;3.67;;;7.00;99.90;;;;;;4964081;28;20524;-73
2021/03/29 01:31:22;;;;;;;9.65;3.78;;;6.90;99.90;;;;;;4974135;28;20074;-74
2021/03/29 01:33:48;;;;;;;7.22;3.63;;;6.90;99.90;;;;;;4963475;28;20037;-73
2021/03/29 01:36:15;;;;;;;6.75;4.18;;;6.80;99.90;;;;;;4975694;28;20042;-73
2021/03/29 01:38:41;;;;;;;14.45;4.22;;;6.90;99.90;;;;;;4975772;28;20031;-73
2021/03/29 01:41:08;;;;;;;8.23;3.60;;;6.80;99.90;;;;;;4975862;28;20023;-73
2021/03/29 01:43:34;;;;;;;8.55;3.72;;;6.70;99.90;;;;;;4974698;28;20027;-73
2021/03/29 01:46:00;;;;;;;9.85;4.43;;;6.80;99.90;;;;;;4976069;28;20041;-71
2021/03/29 01:48:27;;;;;;;7.90;4.05;;;6.70;99.90;;;;;;4974458;28;20373;-72
2021/03/29 01:50:54;;;;;;;9.15;3.80;;;6.70;99.90;;;;;;4974531;28;20082;-72
2021/03/29 01:53:23;;;;;;;6.57;3.72;;;6.70;99.90;;;;;;4975504;28;20038;-71
2021/03/29 01:55:49;;;;;;;10.32;4.03;;;6.70;99.90;;;;;;4975156;28;20030;-72
2021/03/29 01:58:15;;;;;;;7.97;4.07;;;6.80;99.90;;;;;;4975441;28;20031;-72
2021/03/29 02:00:52;;;;;;;8.48;4.10;;;6.80;99.90;;;;;;4975245;28;20038;-72
2021/03/29 02:03:19;;;;;;;6.90;3.80;;;6.90;99.90;;;;;;4970829;28;20035;-72
2021/03/29 02:05:45;;;;;;;7.07;3.75;;;6.90;99.90;;;;;;4970843;28;20031;-72
2021/03/29 02:08:11;;;;;;;8.18;3.92;;;6.90;99.90;;;;;;4975288;28;20062;-72
2021/03/29 02:10:39;;;;;;;6.70;3.53;;;7.00;99.90;;;;;;4975189;28;20484;-73
2021/03/29 02:13:07;;;;;;;8.45;4.00;;;7.10;99.90;;;;;;4975175;28;20027;-72
2021/03/29 02:15:33;;;;;;;7.00;3.28;;;7.10;99.90;;;;;;4973848;28;20473;-72
2021/03/29 02:18:01;;;;;;;7.50;3.88;;;7.20;99.90;;;;;;4975164;28;20067;-72
2021/03/29 02:20:32;;;;;;;7.10;3.40;;;7.20;99.90;;;;;;4974829;28;20030;-72
2021/03/29 02:22:59;;;;;;;7.35;3.80;;;7.20;99.90;;;;;;4961880;28;20023;-72
2021/03/29 02:25:28;;;;;;;9.27;3.88;;;7.20;99.90;;;;;;4973895;28;20121;-72
2021/03/29 02:27:55;;;;;;;9.10;3.53;;;7.10;99.90;;;;;;4975000;28;20027;-73
2021/03/29 02:30:27;;;;;;;7.10;4.15;;;7.10;99.90;;;;;;4974808;28;20027;-72
2021/03/29 02:32:53;;;;;;;10.73;4.78;;;7.10;99.90;;;;;;4973589;28;20023;-73
2021/03/29 02:35:21;;;;;;;7.90;4.22;;;7.20;99.90;;;;;;4968533;28;20023;-72
2021/03/29 02:37:52;;;;;;;5.97;3.92;;;7.20;99.90;;;;;;4967915;28;20022;-73
2021/03/29 02:40:20;;;;;;;7.53;3.90;;;7.20;99.90;;;;;;4975119;28;20366;-73
2021/03/29 02:42:47;;;;;;;6.90;3.88;;;7.20;99.90;;;;;;4973452;28;20033;-73
2021/03/29 02:45:16;;;;;;;9.57;3.75;;;7.20;99.90;;;;;;4974258;28;20027;-72
2021/03/29 02:47:43;;;;;;;10.13;3.83;;;7.20;99.90;;;;;;4973356;28;20033;-74
2021/03/29 02:50:15;;;;;;;6.82;3.65;;;7.20;99.90;;;;;;4974496;28;20030;-73
2021/03/29 02:52:43;;;;;;;8.18;4.15;;;7.10;99.90;;;;;;4974428;28;20106;-72
2021/03/29 02:55:11;;;;;;;9.07;4.32;;;7.20;99.90;;;;;;4974099;28;20038;-73
2021/03/29 02:57:38;;;;;;;9.38;4.28;;;7.20;99.90;;;;;;4974409;28;20113;-73
2021/03/29 03:00:13;;;;;;;8.57;4.00;;;7.10;99.90;;;;;;4974162;28;20026;-72
2021/03/29 03:02:41;;;;;;;7.00;4.22;;;7.10;99.90;;;;;;4974230;28;20358;-73
2021/03/29 03:05:08;;;;;;;10.50;4.22;;;7.10;99.90;;;;;;4974031;28;20042;-74
2021/03/29 03:07:35;;;;;;;9.10;3.92;;;6.90;99.90;;;;;;4974097;28;20114;-73
2021/03/29 03:10:03;;;;;;;8.43;4.13;;;6.90;99.90;;;;;;4974194;28;20027;-73
2021/03/29 03:12:30;;;;;;;8.82;3.85;;;6.90;99.90;;;;;;4969535;28;20069;-72
2021/03/29 03:14:56;;;;;;;5.75;3.70;;;6.80;99.90;;;;;;4964499;28;20365;-72
2021/03/29 03:17:22;;;;;;;7.93;3.97;;;6.80;99.90;;;;;;4973967;28;20026;-70
2021/03/29 03:19:48;;;;;;;8.27;4.65;;;6.80;99.90;;;;;;4974058;28;20031;-71
2021/03/29 03:22:13;;;;;;;6.97;4.35;;;6.80;99.90;;;;;;4973882;28;20477;-72
2021/03/29 03:24:39;;;;;;;8.40;4.43;;;6.70;99.90;;;;;;4973476;28;20568;-72
2021/03/29 03:27:07;;;;;;;9.73;4.40;;;6.70;99.90;;;;;;4973586;28;20033;-73
2021/03/29 03:29:36;;;;;;;9.18;5.20;;;6.70;99.90;;;;;;4973760;28;20051;-73
2021/03/29 03:32:02;;;;;;;9.05;5.32;;;6.70;99.90;;;;;;4968463;28;20019;-72
2021/03/29 03:34:27;;;;;;;9.65;5.47;;;6.70;99.90;;;;;;4966110;28;20063;-74
2021/03/29 03:36:53;;;;;;;9.65;4.95;;;6.60;99.90;;;;;;4972450;28;20068;-74
2021/03/29 03:39:20;;;;;;;9.85;4.47;;;6.60;99.90;;;;;;4972359;28;20030;-74
2021/03/29 03:41:45;;;;;;;8.07;3.97;;;6.70;99.90;;;;;;4960716;28;20078;-73
2021/03/29 03:44:11;;;;;;;8.43;4.10;;;6.60;99.90;;;;;;4973281;28;20031;-73
2021/03/29 03:46:39;;;;;;;5.95;3.78;;;6.60;99.90;;;;;;4973515;28;20031;-73
2021/03/29 03:49:23;;;;;;;9.07;4.35;;;6.60;99.90;;;;;;4973472;28;20045;-72
2021/03/29 03:51:51;;;;;;;9.50;4.45;;;6.50;99.90;;;;;;4961423;28;20026;-73
2021/03/29 03:54:19;;;;;;;7.85;4.35;;;6.50;99.90;;;;;;4972998;28;20033;-73
2021/03/29 03:56:46;;;;;;;10.98;4.47;;;6.40;99.90;;;;;;4973294;28;20031;-73
2021/03/29 03:59:12;;;;;;;10.05;4.75;;;6.20;99.90;;;;;;4971950;28;20046;-73
2021/03/29 04:02:06;;;;;;;6.90;4.47;;;6.20;99.90;;;;;;4973303;28;20066;-74
2021/03/29 04:04:32;;;;;;;10.85;4.63;;;6.20;99.90;;;;;;4960003;28;20025;-74
2021/03/29 04:06:58;;;;;;;10.35;4.43;;;6.20;99.90;;;;;;4973217;28;20031;-75
2021/03/29 04:09:38;;;;;;;8.15;4.60;;;6.20;99.90;;;;;;4973163;28;20078;-74
2021/03/29 04:12:08;;;;;;;7.43;4.50;;;6.10;99.90;;;;;;4971967;28;20105;-73
2021/03/29 04:14:34;;;;;;;7.95;4.72;;;6.10;99.90;;;;;;4972728;28;20381;-73
2021/03/29 04:16:59;;;;;;;7.50;4.45;;;6.10;99.90;;;;;;4970870;28;20030;-72
2021/03/29 04:19:25;;;;;;;8.27;4.43;;;6.10;99.90;;;;;;4973058;28;20027;-72
2021/03/29 04:21:50;;;;;;;7.90;4.32;;;6.10;99.90;;;;;;4971812;28;20106;-72
2021/03/29 04:24:17;;;;;;;8.52;4.03;;;6.10;99.90;;;;;;4968618;28;20144;-72
2021/03/29 04:26:43;;;;;;;7.97;3.70;;;6.10;99.90;;;;;;4971700;28;20031;-73
2021/03/29 04:29:08;;;;;;;9.32;4.25;;;6.00;99.90;;;;;;4973254;28;20037;-73
2021/03/29 04:31:34;;;;;;;10.27;4.28;;;6.00;99.90;;;;;;4972917;28;20511;-73
2021/03/29 04:33:59;;;;;;;8.50;4.35;;;5.90;99.90;;;;;;4971421;28;20031;-72
2021/03/29 04:36:25;;;;;;;7.10;4.28;;;6.00;99.90;;;;;;4969535;28;20030;-73
2021/03/29 04:38:50;;;;;;;11.13;4.95;;;6.00;99.90;;;;;;4964968;28;20027;-73
2021/03/29 04:41:16;;;;;;;9.30;6.05;;;6.10;99.90;;;;;;4976813;28;20081;-73
2021/03/29 04:43:42;;;;;;;9.90;5.65;;;6.10;99.90;;;;;;4976678;28;20027;-73
2021/03/29 04:46:07;;;;;;;9.18;5.35;;;6.10;99.90;;;;;;4976745;28;20034;-73
2021/03/29 04:48:33;;;;;;;6.93;4.55;;;6.10;99.90;;;;;;4975406;28;20362;-73
2021/03/29 04:50:58;;;;;;;12.68;5.63;;;6.00;99.90;;;;;;4976729;28;20033;-72
2021/03/29 04:53:24;;;;;;;7.50;4.72;;;6.00;99.90;;;;;;4976842;28;20110;-73
2021/03/29 04:55:49;;;;;;;10.20;6.30;;;6.00;99.90;;;;;;4973269;28;20031;-73
2021/03/29 04:58:15;;;;;;;10.18;5.78;;;6.00;99.90;;;;;;4975300;28;20031;-72
2021/03/29 05:00:40;;;;;;;7.95;4.68;;;6.10;99.90;;;;;;4976435;28;20111;-72
2021/03/29 05:03:06;;;;;;;11.63;4.93;;;6.10;99.90;;;;;;4975264;28;20393;-74
2021/03/29 05:05:31;;;;;;;10.35;5.47;;;6.00;99.90;;;;;;4976175;28;20065;-73
2021/03/29 05:07:57;;;;;;;9.43;5.47;;;6.10;99.90;;;;;;4976420;28;20069;-72
2021/03/29 05:10:22;;;;;;;8.35;4.38;;;6.00;99.90;;;;;;4976354;28;20027;-70
2021/03/29 05:12:48;;;;;;;10.13;5.60;;;6.00;99.90;;;;;;4969125;28;20079;-72
2021/03/29 05:15:14;;;;;;;11.15;5.28;;;6.10;99.90;;;;;;4969161;28;20049;-73
2021/03/29 05:17:39;;;;;;;9.05;5.00;;;6.10;99.90;;;;;;4974874;28;20023;-73
2021/03/29 05:20:06;;;;;;;11.75;5.68;;;6.10;99.90;;;;;;4976156;28;20057;-73
2021/03/29 05:22:32;;;;;;;12.63;6.00;;;6.10;99.90;;;;;;4974837;28;20022;-72
2021/03/29 05:24:58;;;;;;;39.05;27.30;;;6.20;99.90;;;;;;4975638;28;20599;-72
2021/03/29 05:27:24;;;;;;;45.35;28.42;;;6.20;99.90;;;;;;4974829;28;20031;-73
2021/03/29 05:29:49;;;;;;;29.92;17.25;;;6.20;99.90;;;;;;4975954;28;20030;-71
2021/03/29 05:32:19;;;;;;;42.50;24.83;;;6.20;99.90;;;;;;4968939;28;20363;-71
2021/03/29 05:34:48;;;;;;;52.95;34.88;;;6.20;99.90;;;;;;4970534;28;20106;-72
2021/03/29 05:37:15;;;;;;;20.70;13.20;;;6.20;99.90;;;;;;4975887;28;20030;-71
2021/03/29 05:39:40;;;;;;;9.85;6.22;;;6.30;99.90;;;;;;4975732;28;20038;-71
2021/03/29 05:42:07;;;;;;;15.45;9.80;;;6.40;99.90;;;;;;4975910;28;20030;-71
2021/03/29 05:44:34;;;;;;;13.70;8.23;;;6.40;99.90;;;;;;4975310;28;20485;-71
2021/03/29 05:47:00;;;;;;;10.20;5.97;;;6.50;99.90;;;;;;4967350;28;20027;-72
2021/03/29 05:49:26;;;;;;;10.25;5.60;;;6.50;99.90;;;;;;4969864;28;20026;-71
2021/03/29 05:51:52;;;;;;;9.00;4.50;;;6.50;99.90;;;;;;4975675;28;20030;-71
2021/03/29 05:54:17;;;;;;;9.27;5.55;;;6.60;99.90;;;;;;4974033;28;20051;-72
2021/03/29 05:56:43;;;;;;;9.95;4.80;;;6.60;99.90;;;;;;4975474;28;20413;-72
2021/03/29 05:59:12;;;;;;;9.40;5.20;;;6.60;99.90;;;;;;4975445;28;20018;-71
2021/03/29 06:01:40;;;;;;;9.00;5.00;;;6.60;99.90;;;;;;4975480;28;20030;-71
2021/03/29 06:04:05;;;;;;;15.13;5.35;;;6.60;99.90;;;;;;4975152;28;20027;-72
2021/03/29 06:06:31;;;;;;;8.15;4.07;;;6.70;99.90;;;;;;4975409;28;20042;-72
2021/03/29 06:08:57;;;;;;;9.50;4.80;;;6.70;99.90;;;;;;4975254;28;20027;-71
2021/03/29 06:11:28;;;;;;;10.82;5.43;;;6.80;99.90;;;;;;4975075;28;20437;-71
2021/03/29 06:14:10;;;;;;;13.38;7.95;;;6.90;99.90;;;;;;4975047;28;20397;-71
2021/03/29 06:16:57;;;;;;;13.93;7.88;;;7.00;99.90;;;;;;4975244;28;20484;-71
2021/03/29 06:19:55;;;;;;;11.40;7.25;;;7.10;99.90;;;;;;4955911;28;20034;-72
2021/03/29 06:22:34;;;;;;;;;;;7.30;99.90;;;;;;4973298;28;20486;-71
2021/03/29 06:25:08;;;;;;;8.75;5.28;;;7.50;99.90;;;;;;4973252;28;19914;-72
2021/03/29 06:27:43;;;;;;;11.60;4.50;;;7.60;99.90;;;;;;4975005;28;20029;-72
2021/03/29 06:30:27;;;;;;;9.18;4.75;;;7.80;99.90;;;;;;4973684;28;20138;-71
2021/03/29 06:32:56;;;;;;;10.77;5.38;;;7.90;99.90;;;;;;4974911;28;20508;-71
2021/03/29 06:35:28;;;;;;;8.77;5.75;;;7.90;99.90;;;;;;4973265;28;20054;-72
2021/03/29 06:38:03;;;;;;;16.70;8.73;;;8.00;99.90;;;;;;4974809;28;20417;-72
2021/03/29 06:40:29;;;;;;;14.13;7.33;;;8.10;99.90;;;;;;4974786;28;20492;-71
2021/03/29 06:42:54;;;;;;;22.17;13.02;;;8.20;99.90;;;;;;4972869;28;20263;-72
2021/03/29 06:45:21;;;;;;;16.65;10.27;;;8.20;99.90;;;;;;4963374;28;20038;-71
2021/03/29 06:47:47;;;;;;;13.45;7.55;;;8.30;99.90;;;;;;4971518;28;20031;-70
2021/03/29 06:50:25;;;;;;;14.23;6.38;;;8.30;99.90;;;;;;4963504;28;20110;-72
2021/03/29 06:52:51;;;;;;;8.73;4.90;;;8.40;99.90;;;;;;4973624;28;20034;-72
2021/03/29 06:55:16;;;;;;;8.57;5.07;;;8.40;99.90;;;;;;4972355;28;20096;-72
2021/03/29 06:57:43;;;;;;;6.95;4.70;;;8.40;99.90;;;;;;4970362;28;20059;-72
2021/03/29 07:00:13;;;;;;;8.80;4.88;;;8.50;99.90;;;;;;4972343;28;20038;-72
2021/03/29 07:02:41;;;;;;;9.65;4.80;;;8.60;99.90;;;;;;4970858;28;20046;-72
2021/03/29 07:05:09;;;;;;;8.93;5.55;;;8.60;99.90;;;;;;4973707;28;20027;-72
2021/03/29 07:07:37;;;;;;;9.95;4.40;;;8.70;99.90;;;;;;4972397;28;20030;-72
2021/03/29 07:10:04;;;;;;;15.02;5.20;;;8.80;99.90;;;;;;4973883;28;20026;-72
2021/03/29 07:12:37;;;;;;;11.32;5.57;;;8.90;99.90;;;;;;4973823;28;20541;-71
2021/03/29 07:15:11;;;;;;;13.18;4.85;;;9.00;99.90;;;;;;4973739;28;20035;-71
2021/03/29 07:17:38;;;;;;;7.43;4.45;;;9.10;99.90;;;;;;4962355;28;20058;-71
2021/03/29 07:20:12;;;;;;;13.05;5.57;;;9.20;99.90;;;;;;4970666;28;20536;-71
2021/03/29 07:22:39;;;;;;;7.22;4.70;;;9.20;99.90;;;;;;4973718;28;20117;-71
2021/03/29 07:25:17;;;;;;;9.43;5.13;;;9.10;99.90;;;;;;4972035;28;20505;-72
2021/03/29 07:27:55;;;;;;;8.20;5.25;;;9.10;99.90;;;;;;4972436;28;20031;-72
2021/03/29 07:30:44;;;;;;;9.68;5.50;;;9.00;99.90;;;;;;4973566;28;20417;-71
2021/03/29 07:33:11;;;;;;;9.07;5.78;;;8.90;99.90;;;;;;4973532;28;20038;-71
2021/03/29 07:35:50;;;;;;;15.20;5.38;;;9.00;99.90;;;;;;4973238;28;20025;-71
2021/03/29 07:38:17;;;;;;;11.95;5.68;;;9.20;99.90;;;;;;4973278;28;20031;-72
2021/03/29 07:40:46;;;;;;;11.98;7.63;;;9.30;99.90;;;;;;4973411;28;20031;-71
2021/03/29 07:43:17;;;;;;;11.10;6.30;;;9.40;99.90;;;;;;4973254;28;20030;-71
2021/03/29 07:45:49;;;;;;;8.35;4.80;;;9.40;99.90;;;;;;4973210;28;20085;-70
2021/03/29 07:48:30;;;;;;;9.57;5.32;;;9.50;99.90;;;;;;4960542;28;20046;-70
2021/03/29 07:50:56;;;;;;;9.57;4.68;;;9.60;99.90;;;;;;4970713;28;20441;-71
2021/03/29 07:54:00;;;;;;;9.73;5.80;;;9.70;99.90;;;;;;4960359;28;20121;-71
2021/03/29 07:56:35;;;;;;;8.05;4.95;;;9.80;99.90;;;;;;4960256;28;20023;-72
2021/03/29 07:59:02;;;;;;;7.70;4.50;;;9.90;99.90;;;;;;4960332;28;20023;-72
2021/03/29 08:01:48;;;;;;;10.18;4.97;;;10.00;99.90;;;;;;4973092;28;20031;-72
2021/03/29 08:04:14;;;;;;;8.13;4.20;;;10.10;99.90;;;;;;4972543;28;20430;-71
2021/03/29 08:06:46;;;;;;;11.52;5.00;;;10.20;99.90;;;;;;4972992;28;20113;-71
2021/03/29 08:09:15;;;;;;;8.98;4.15;;;10.20;99.90;;;;;;4971746;28;20116;-72
2021/03/29 08:11:53;;;;;;;11.13;4.63;;;10.20;99.90;;;;;;4972633;28;20031;-71
2021/03/29 08:14:29;;;;;;;9.23;4.22;;;10.30;99.90;;;;;;4972372;28;20412;-71
2021/03/29 08:16:55;;;;;;;;;;;10.50;99.90;;;;;;4960382;28;20078;-70
2021/03/29 08:19:21;;;;;;;12.90;6.80;;;10.60;99.90;;;;;;4972969;28;19910;-72
2021/03/29 08:21:57;;;;;;;8.73;3.80;;;10.60;99.90;;;;;;4972652;28;20026;-72
2021/03/29 08:24:33;;;;;;;9.80;3.85;;;10.80;99.90;;;;;;4972372;28;20432;-71
2021/03/29 08:27:03;;;;;;;7.35;3.58;;;10.80;99.90;;;;;;4972709;28;20114;-71
2021/03/29 08:29:37;;;;;;;8.38;3.70;;;10.90;99.90;;;;;;4972736;28;20037;-71
2021/03/29 08:32:06;;;;;;;10.25;3.75;;;10.90;99.90;;;;;;4959611;28;20027;-72
2021/03/29 08:34:41;;;;;;;6.05;3.13;;;11.00;99.90;;;;;;4960123;28;20086;-70
2021/03/29 08:37:07;;;;;;;6.90;3.60;;;11.10;99.90;;;;;;4956096;28;20123;-71
2021/03/29 08:39:38;;;;;;;8.15;3.55;;;11.10;99.90;;;;;;4968129;28;20034;-72
2021/03/29 08:42:05;;;;;;;8.80;3.92;;;11.30;99.90;;;;;;4967310;28;20022;-72
2021/03/29 08:44:31;;;;;;;7.63;3.92;;;11.40;99.90;;;;;;4966587;28;20370;-72
2021/03/29 08:46:57;;;;;;;10.13;4.63;;;11.40;99.90;;;;;;4960557;28;20053;-71
2021/03/29 08:49:24;;;;;;;8.25;4.07;;;11.50;99.90;;;;;;4959024;28;20035;-72
2021/03/29 08:51:51;;;;;;;7.32;3.60;;;11.60;99.90;;;;;;4963786;28;20132;-71
2021/03/29 08:54:17;;;;;;;8.43;3.95;;;11.70;99.90;;;;;;4967858;28;20089;-72
2021/03/29 08:56:45;;;;;;;8.80;3.75;;;11.80;99.90;;;;;;4972308;28;20031;-70
2021/03/29 08:59:11;;;;;;;8.38;3.80;;;12.00;99.90;;;;;;4972273;28;20030;-71
2021/03/29 09:01:41;;;;;;;10.27;3.70;;;12.10;99.90;;;;;;4972413;28;20037;-71
2021/03/29 09:04:07;;;;;;;8.05;3.67;;;12.10;99.90;;;;;;4972039;28;20031;-71
2021/03/29 09:06:33;;;;;;;9.95;3.75;;;12.20;99.90;;;;;;4972401;28;20065;-71
2021/03/29 09:09:16;;;;;;;11.18;3.72;;;12.30;99.90;;;;;;4969840;28;20050;-71
2021/03/29 09:11:44;;;;;;;6.78;3.45;;;12.40;99.90;;;;;;4964844;28;20031;-71
2021/03/29 09:14:11;;;;;;;10.52;3.45;;;12.40;99.90;;;;;;4959429;28;20046;-71
2021/03/29 09:16:37;;;;;;;8.43;3.28;;;12.50;99.90;;;;;;4960455;28;20077;-71
2021/03/29 09:19:19;;;;;;;8.50;3.83;;;12.50;99.90;;;;;;4966221;28;20023;-73
2021/03/29 09:21:55;;;;;;;9.60;3.80;;;12.50;99.90;;;;;;4966183;28;20026;-72
2021/03/29 09:24:23;;;;;;;9.68;3.92;;;12.70;99.90;;;;;;4955794;28;20035;-73
2021/03/29 09:27:00;;;;;;;9.82;3.90;;;12.90;99.90;;;;;;4975927;28;20373;-72
2021/03/29 09:29:48;;;;;;;10.80;4.72;;;13.00;99.90;;;;;;4974614;28;20502;-71
2021/03/29 09:32:20;;;;;;;7.07;3.63;;;13.10;99.90;;;;;;4963957;28;20030;-72
2021/03/29 09:34:47;;;;;;;6.97;3.35;;;13.10;99.90;;;;;;4973901;28;20121;-72
2021/03/29 09:37:20;;;;;;;6.32;3.30;;;13.20;99.90;;;;;;4964817;28;20030;-71
2021/03/29 09:39:47;;;;;;;8.73;3.40;;;13.30;99.90;;;;;;4962629;28;20089;-71
2021/03/29 09:42:16;;;;;;;7.15;3.70;;;13.50;99.90;;;;;;4966311;28;20035;-71
2021/03/29 09:44:42;;;;;;;8.63;3.65;;;13.50;99.90;;;;;;4968990;28;20478;-72
2021/03/29 09:47:09;;;;;;;6.90;3.42;;;13.60;99.90;;;;;;4965998;28;20499;-72
2021/03/29 09:49:50;;;;;;;7.53;3.60;;;13.70;99.90;;;;;;4960907;28;20556;-71
2021/03/29 09:52:16;;;;;;;7.15;3.58;;;14.00;99.90;;;;;;4963806;28;20027;-72
2021/03/29 09:54:48;;;;;;;7.20;3.85;;;13.90;99.90;;;;;;4968748;28;20033;-72
2021/03/29 09:57:21;;;;;;;7.38;3.30;;;13.90;99.90;;;;;;4968418;28;20053;-71
2021/03/29 09:59:47;;;;;;;9.05;4.20;;;14.10;99.90;;;;;;4961665;28;20027;-71
2021/03/29 10:02:24;;;;;;;6.57;3.33;;;13.90;99.90;;;;;;4974359;28;20396;-71
2021/03/29 10:05:10;;;;;;;11.82;3.42;;;14.00;99.90;;;;;;4974913;28;20023;-72
2021/03/29 10:07:48;;;;;;;7.07;3.50;;;14.40;99.90;;;;;;4973843;28;20110;-72
2021/03/29 10:10:21;;;;;;;9.27;3.88;;;14.40;99.90;;;;;;4975137;28;20033;-71
2021/03/29 10:12:47;;;;;;;5.80;3.10;;;14.40;99.90;;;;;;4961544;28;20370;-71
2021/03/29 10:15:13;;;;;;;7.65;2.88;;;14.60;99.90;;;;;;4974630;28;20038;-72
2021/03/29 10:17:40;;;;;;;6.72;2.97;;;14.50;99.90;;;;;;4974980;28;20059;-71
2021/03/29 10:20:11;;;;;;;6.93;3.00;;;14.70;99.90;;;;;;4973762;28;20090;-71
2021/03/29 10:22:37;;;;;;;9.65;3.85;;;14.90;99.90;;;;;;4967008;28;20055;-71
2021/03/29 10:25:15;;;;;;;8.90;3.30;;;15.10;99.90;;;;;;4966610;28;20059;-72
2021/03/29 10:27:55;;;;;;;8.55;3.88;;;15.10;99.90;;;;;;4973446;28;20070;-72
2021/03/29 10:30:26;;;;;;;10.60;3.95;;;14.90;99.90;;;;;;4969377;28;20016;-71
2021/03/29 10:32:54;;;;;;;7.03;3.30;;;15.00;99.90;;;;;;4968374;28;20018;-71
2021/03/29 10:35:21;;;;;;;5.88;2.80;;;15.10;99.90;;;;;;4952900;28;20059;-71
2021/03/29 10:37:47;;;;;;;8.77;3.65;;;15.30;99.90;;;;;;4968463;28;20039;-71
2021/03/29 10:40:13;;;;;;;14.40;3.70;;;15.30;99.90;;;;;;4961997;28;20031;-72
2021/03/29 10:42:40;;;;;;;7.38;3.70;;;15.30;99.90;;;;;;4974422;28;20058;-72
2021/03/29 10:45:14;;;;;;;11.02;3.30;;;15.40;99.90;;;;;;4961346;28;20105;-71
2021/03/29 10:47:40;;;;;;;5.97;2.72;;;15.60;99.90;;;;;;4973587;28;20600;-71
2021/03/29 10:50:08;;;;;;;5.85;2.90;;;15.60;99.90;;;;;;4962455;28;20362;-71
2021/03/29 10:52:34;;;;;;;5.88;2.72;;;15.50;99.90;;;;;;4961247;28;20043;-71
2021/03/29 10:54:59;;;;;;;7.53;2.78;;;15.70;99.90;;;;;;4974039;28;20078;-71
2021/03/29 10:57:25;;;;;;;9.10;2.92;;;15.80;99.90;;;;;;4974223;28;20034;-71
2021/03/29 10:59:50;;;;;;;7.72;2.97;;;16.00;99.90;;;;;;4973121;28;20050;-71
2021/03/29 11:02:16;;;;;;;6.63;2.53;;;16.00;99.90;;;;;;4961269;28;20023;-72
2021/03/29 11:04:42;;;;;;;5.80;2.55;;;15.90;99.80;;;;;;4965371;28;20027;-71
2021/03/29 11:07:07;;;;;;;6.78;2.65;;;16.00;99.90;;;;;;4967618;28;20034;-71
2021/03/29 11:09:33;;;;;;;6.07;2.40;;;16.30;98.60;;;;;;4962483;28;20028;-71
2021/03/29 11:11:58;;;;;;;5.68;2.25;;;16.40;97.10;;;;;;4961127;28;20035;-71
2021/03/29 11:14:24;;;;;;;6.97;2.20;;;16.40;96.20;;;;;;4973993;28;20046;-72
2021/03/29 11:16:54;;;;;;;4.80;2.20;;;16.60;97.40;;;;;;4973325;28;20158;-72
2021/03/29 11:19:20;;;;;;;7.60;2.47;;;16.70;94.10;;;;;;4962552;28;20069;-71
2021/03/29 11:21:47;;;;;;;5.43;2.00;;;16.60;91.40;;;;;;4960083;28;20035;-71
2021/03/29 11:24:13;;;;;;;5.38;2.10;;;16.70;92.10;;;;;;4961940;28;20023;-71
2021/03/29 11:26:40;;;;;;;4.90;2.17;;;16.90;92.30;;;;;;4972568;28;20049;-71
2021/03/29 11:29:05;;;;;;;4.70;2.35;;;16.90;90.60;;;;;;4962586;28;20027;-71
2021/03/29 11:31:31;;;;;;;4.75;2.08;;;17.20;91.20;;;;;;4972548;28;20030;-71
2021/03/29 11:33:57;;;;;;;6.05;2.03;;;17.10;89.90;;;;;;4973647;28;20070;-72
2021/03/29 11:36:22;;;;;;;4.55;2.20;;;17.10;84.80;;;;;;4972189;28;20553;-72
2021/03/29 11:38:49;;;;;;;5.57;2.40;;;17.00;84.40;;;;;;4962481;28;20429;-71
2021/03/29 11:41:16;;;;;;;6.18;2.25;;;17.10;88.90;;;;;;4973722;28;20038;-71
2021/03/29 11:43:42;;;;;;;5.13;2.22;;;17.20;84.90;;;;;;4973566;28;20019;-71
2021/03/29 11:46:07;;;;;;;5.05;2.25;;;17.40;86.20;;;;;;4960504;28;20037;-71
2021/03/29 11:48:33;;;;;;;5.05;2.20;;;17.50;85.70;;;;;;4965563;28;20032;-72
2021/03/29 11:50:59;;;;;;;3.50;2.00;;;17.40;81.30;;;;;;4968779;28;20477;-72
2021/03/29 11:53:25;;;;;;;5.28;2.15;;;17.60;83.10;;;;;;4973399;28;20026;-74
2021/03/29 11:55:51;;;;;;;6.57;2.80;;;17.70;81.20;;;;;;4971521;28;20029;-71
2021/03/29 11:58:16;;;;;;;5.22;2.45;;;17.90;78.50;;;;;;4962249;28;20030;-72
2021/03/29 12:03:22;;;;;;;6.70;2.78;;;18.40;79.80;;;;;;4965564;28;20023;-71
2021/03/29 12:06:04;;;;;;;4.13;2.10;;;18.80;76.60;;;;;;4966854;28;20396;-72
2021/03/29 12:13:56;;;;;;;4.78;2.55;;;19.70;72.70;;;;;;4973103;28;20029;-73
2021/03/29 12:16:24;;;;;;;4.60;2.42;;;19.70;66.80;;;;;;4963649;28;20166;-72
2021/03/29 12:18:53;;;;;;;3.60;2.10;;;19.70;65.90;;;;;;4969927;28;20122;-71
2021/03/29 12:21:23;;;;;;;4.60;2.50;;;19.90;64.60;;;;;;4973198;28;20027;-71
2021/03/29 12:23:52;;;;;;;4.65;2.45;;;20.50;64.40;;;;;;4972934;28;20030;-71
2021/03/29 12:26:22;;;;;;;2.65;2.20;;;20.60;65.20;;;;;;4972827;28;20030;-71
2021/03/29 12:28:50;;;;;;;4.40;2.50;;;20.80;62.00;;;;;;4972399;28;20051;-71
2021/03/29 12:31:17;;;;;;;3.38;2.30;;;21.40;63.10;;;;;;4972743;28;20029;-72
2021/03/29 12:33:42;;;;;;;6.35;2.17;;;21.30;60.80;;;;;;4960038;28;20027;-73
2021/03/29 12:36:10;;;;;;;4.13;2.50;;;21.10;61.50;;;;;;4971667;28;20093;-72
2021/03/29 12:38:38;;;;;;;5.22;2.65;;;21.10;61.20;;;;;;4972821;28;20110;-71
2021/03/29 12:41:06;;;;;;;3.90;2.55;;;21.60;63.60;;;;;;4973193;28;20023;-73
2021/03/29 12:44:00;;;;;;;4.82;2.92;;;21.90;62.50;;;;;;4972477;28;20023;-72
2021/03/29 12:46:21;;;;;;;5.80;5.40;;;22.10;62.40;;;;;;4972376;28;20041;-72
2021/03/29 12:48:46;;;;;;;6.18;3.88;;;21.50;60.70;;;;;;4972784;28;20460;-72
2021/03/29 12:51:14;;;;;;;7.28;2.95;;;21.60;62.10;;;;;;4972598;28;20085;-73
2021/03/29 12:53:41;;;;;;;3.60;2.80;;;21.80;60.10;;;;;;4972268;28;20030;-72
2021/03/29 12:56:06;;;;;;;4.20;3.53;;;21.50;60.90;;;;;;4972464;28;20030;-73
2021/03/29 12:58:35;;;;;;;5.80;2.65;;;21.30;59.40;;;;;;4973341;28;20374;-71
2021/03/29 13:01:08;;;;;;;4.88;2.78;;;22.00;60.30;;;;;;4976374;28;20031;-71
2021/03/29 13:03:40;;;;;;;4.78;2.97;;;21.50;59.60;;;;;;4976345;28;20501;-71
2021/03/29 13:06:14;;;;;;;4.72;2.75;;;22.70;60.40;;;;;;4976586;28;20393;-71
2021/03/29 13:08:40;;;;;;;5.05;4.10;;;22.80;57.90;;;;;;4976415;28;20511;-72